createdAt,value
2022-07-27T00:00:00.895Z,15.1
2022-07-27T00:01:01.561Z,15
2022-07-27T00:02:01.157Z,15
2022-07-27T00:03:01.726Z,15
2022-07-27T00:04:01.384Z,15
2022-07-27T00:05:00.882Z,15
2022-07-27T00:06:01.532Z,14.9
2022-07-27T00:07:01.111Z,14.9
2022-07-27T00:08:01.695Z,14.9
2022-07-27T00:09:01.279Z,14.8
2022-07-27T00:10:00.850Z,14.9
2022-07-27T00:11:01.453Z,14.8
2022-07-27T00:12:01.054Z,14.8
2022-07-27T00:13:01.626Z,14.7
2022-07-27T00:14:01.206Z,14.7
2022-07-27T00:15:01.781Z,14.7
2022-07-27T00:16:01.503Z,14.8
2022-07-27T00:17:01.009Z,14.6
2022-07-27T00:18:01.597Z,14.7
2022-07-27T00:19:01.185Z,14.7
2022-07-27T00:20:01.765Z,14.7
2022-07-27T00:21:01.363Z,14.7
2022-07-27T00:22:00.935Z,14.7
2022-07-27T00:23:01.491Z,14.7
2022-07-27T00:24:01.143Z,14.7
2022-07-27T00:25:01.716Z,14.6
2022-07-27T00:26:01.313Z,14.7
2022-07-27T00:27:00.878Z,14.6
2022-07-27T00:28:01.459Z,14.6
2022-07-27T00:29:01.042Z,14.7
2022-07-27T00:30:01.621Z,14.7
2022-07-27T00:31:01.252Z,14.6
2022-07-27T00:32:01.779Z,14.6
2022-07-27T00:33:01.358Z,14.7
2022-07-27T00:34:00.952Z,14.7
2022-07-27T00:35:01.514Z,14.6
2022-07-27T00:36:01.108Z,14.7
2022-07-27T00:37:01.662Z,14.6
2022-07-27T00:38:01.244Z,14.6
2022-07-27T00:39:01.826Z,14.6
2022-07-27T00:40:01.410Z,14.6
2022-07-27T00:41:01.008Z,14.5
2022-07-27T00:42:01.567Z,14.6
2022-07-27T00:43:01.146Z,14.6
2022-07-27T00:44:01.742Z,14.6
2022-07-27T00:45:01.320Z,14.7
2022-07-27T00:46:04.666Z,14.6
2022-07-27T00:47:01.500Z,14.5
2022-07-27T00:48:01.120Z,14.6
2022-07-27T00:49:01.803Z,14.5
2022-07-27T00:50:01.348Z,14.5
2022-07-27T00:51:00.945Z,14.4
2022-07-27T00:52:01.533Z,14.5
2022-07-27T00:53:01.173Z,14.5
2022-07-27T00:54:01.747Z,14.5
2022-07-27T00:55:01.329Z,14.4
2022-07-27T00:56:00.904Z,14.5
2022-07-27T00:57:01.507Z,14.5
2022-07-27T00:58:01.087Z,14.4
2022-07-27T00:59:01.669Z,14.3
2022-07-27T01:00:01.246Z,14.4
2022-07-27T01:01:01.828Z,14.4
2022-07-27T01:02:01.579Z,14.3
2022-07-27T01:03:02.612Z,14.4
2022-07-27T01:04:01.596Z,14.4
2022-07-27T01:05:01.197Z,14.4
2022-07-27T01:06:01.976Z,14.4
2022-07-27T01:07:01.442Z,14.3
2022-07-27T01:08:00.968Z,14.3
2022-07-27T01:09:01.566Z,14.3
2022-07-27T01:10:01.146Z,14.3
2022-07-27T01:11:01.737Z,14.2
2022-07-27T01:12:01.315Z,14.2
2022-07-27T01:13:00.899Z,14.2
2022-07-27T01:14:01.492Z,14.3
2022-07-27T01:15:01.071Z,14.2
2022-07-27T01:16:01.736Z,14.2
2022-07-27T01:17:01.311Z,14.2
2022-07-27T01:18:00.891Z,14.3
2022-07-27T01:19:01.485Z,14.2
2022-07-27T01:20:01.065Z,14.1
2022-07-27T01:21:01.649Z,13.9
2022-07-27T01:22:01.229Z,14
2022-07-27T01:23:01.809Z,14.2
2022-07-27T01:24:01.413Z,14.1
2022-07-27T01:25:00.995Z,14.1
2022-07-27T01:26:01.599Z,14.1
2022-07-27T01:27:01.181Z,14.1
2022-07-27T01:28:01.762Z,14.1
2022-07-27T01:29:01.375Z,14.1
2022-07-27T01:30:00.923Z,14
2022-07-27T01:31:01.536Z,14
2022-07-27T01:32:01.161Z,14
2022-07-27T01:33:01.738Z,14
2022-07-27T01:34:01.337Z,14
2022-07-27T01:35:00.891Z,14
2022-07-27T01:36:01.466Z,14
2022-07-27T01:37:01.042Z,13.9
2022-07-27T01:38:01.623Z,13.9
2022-07-27T01:39:01.233Z,13.9
2022-07-27T01:40:01.801Z,13.9
2022-07-27T01:41:01.382Z,13.9
2022-07-27T01:42:00.969Z,13.8
2022-07-27T01:43:01.553Z,13.8
2022-07-27T01:44:01.135Z,13.8
2022-07-27T01:45:01.719Z,13.6
2022-07-27T01:46:01.337Z,13.8
2022-07-27T01:47:00.884Z,13.7
2022-07-27T01:48:01.488Z,13.7
2022-07-27T01:49:01.118Z,13.7
2022-07-27T01:50:01.651Z,13.7
2022-07-27T01:51:01.233Z,13.7
2022-07-27T01:52:01.811Z,13.6
2022-07-27T01:53:01.409Z,13.6
2022-07-27T01:54:00.988Z,13.6
2022-07-27T01:55:01.567Z,13.6
2022-07-27T01:56:01.159Z,13.6
2022-07-27T01:57:01.757Z,13.6
2022-07-27T01:58:01.356Z,13.5
2022-07-27T01:59:00.912Z,13.5
2022-07-27T02:00:01.492Z,13.4
2022-07-27T02:01:01.070Z,13.5
2022-07-27T02:02:01.745Z,13.4
2022-07-27T02:03:01.327Z,13.4
2022-07-27T02:04:00.889Z,13.4
2022-07-27T02:05:01.488Z,13.3
2022-07-27T02:06:01.126Z,13.3
2022-07-27T02:07:01.710Z,13.3
2022-07-27T02:08:01.359Z,13.3
2022-07-27T02:09:01.869Z,13.2
2022-07-27T02:10:01.452Z,13.3
2022-07-27T02:11:01.032Z,13.2
2022-07-27T02:12:01.618Z,13.3
2022-07-27T02:13:01.220Z,13.3
2022-07-27T02:14:01.760Z,13.2
2022-07-27T02:15:05.497Z,13.2
2022-07-27T02:16:00.910Z,13.2
2022-07-27T02:17:01.500Z,13.1
2022-07-27T02:18:00.934Z,13.1
2022-07-27T02:19:04.644Z,13.1
2022-07-27T02:20:01.087Z,13.1
2022-07-27T02:21:01.665Z,13.1
2022-07-27T02:22:01.252Z,13.1
2022-07-27T02:23:01.838Z,13
2022-07-27T02:24:01.445Z,13
2022-07-27T02:25:01.025Z,12.9
2022-07-27T02:26:01.607Z,12.9
2022-07-27T02:27:01.186Z,12.9
2022-07-27T02:28:01.758Z,12.8
2022-07-27T02:29:01.357Z,12.6
2022-07-27T02:30:00.926Z,12.6
2022-07-27T02:31:01.506Z,12.4
2022-07-27T02:32:01.085Z,12.5
2022-07-27T02:33:01.707Z,12.5
2022-07-27T02:34:01.323Z,12.5
2022-07-27T02:35:00.886Z,12.3
2022-07-27T02:36:01.429Z,12.2
2022-07-27T02:37:01.010Z,12.3
2022-07-27T02:38:01.590Z,12.2
2022-07-27T02:39:01.189Z,12.1
2022-07-27T02:40:01.758Z,12
2022-07-27T02:41:01.338Z,12.3
2022-07-27T02:42:01.104Z,12.3
2022-07-27T02:43:01.508Z,12.2
2022-07-27T02:44:01.107Z,12.1
2022-07-27T02:45:01.662Z,12.2
2022-07-27T02:46:01.328Z,12.2
2022-07-27T02:47:01.839Z,12.2
2022-07-27T02:48:01.427Z,12.1
2022-07-27T02:49:01.047Z,12
2022-07-27T02:50:01.610Z,11.9
2022-07-27T02:51:01.188Z,11.8
2022-07-27T02:52:01.771Z,11.9
2022-07-27T02:53:01.358Z,12
2022-07-27T02:54:00.956Z,11.9
2022-07-27T02:55:01.542Z,12
2022-07-27T02:56:01.125Z,11.9
2022-07-27T02:57:01.698Z,11.9
2022-07-27T02:58:01.276Z,11.9
2022-07-27T02:59:01.870Z,11.9
2022-07-27T03:00:01.455Z,11.9
2022-07-27T03:01:01.045Z,11.9
2022-07-27T03:02:01.720Z,11.8
2022-07-27T03:03:01.287Z,11.8
2022-07-27T03:04:01.919Z,11.8
2022-07-27T03:05:01.533Z,11.9
2022-07-27T03:06:01.106Z,11.9
2022-07-27T03:07:01.685Z,11.8
2022-07-27T03:08:01.309Z,11.9
2022-07-27T03:09:01.854Z,11.9
2022-07-27T03:10:01.458Z,11.9
2022-07-27T03:11:01.036Z,12
2022-07-27T03:12:01.608Z,12
2022-07-27T03:13:01.187Z,12
2022-07-27T03:14:01.766Z,12.1
2022-07-27T03:15:01.365Z,12.1
2022-07-27T03:16:00.970Z,12.1
2022-07-27T03:17:01.519Z,12
2022-07-27T03:18:01.103Z,12.1
2022-07-27T03:19:01.679Z,12.2
2022-07-27T03:20:01.295Z,12.1
2022-07-27T03:21:01.833Z,12.1
2022-07-27T03:22:01.413Z,12.2
2022-07-27T03:23:00.998Z,12.2
2022-07-27T03:24:01.576Z,12.2
2022-07-27T03:25:01.177Z,12.3
2022-07-27T03:26:01.731Z,12.3
2022-07-27T03:27:01.317Z,12.1
2022-07-27T03:28:04.142Z,12.1
2022-07-27T03:29:01.434Z,12.1
2022-07-27T03:30:01.037Z,12.1
2022-07-27T03:31:01.717Z,12.1
2022-07-27T03:32:01.259Z,12.1
2022-07-27T03:33:01.816Z,12.2
2022-07-27T03:34:02.128Z,12.1
2022-07-27T03:35:01.858Z,12.1
2022-07-27T03:36:01.441Z,12.1
2022-07-27T03:37:01.039Z,12
2022-07-27T03:38:01.606Z,12
2022-07-27T03:39:05.777Z,12
2022-07-27T03:40:01.749Z,12
2022-07-27T03:41:01.330Z,12
2022-07-27T03:42:00.925Z,11.9
2022-07-27T03:43:01.487Z,11.9
2022-07-27T03:44:01.071Z,11.9
2022-07-27T03:45:01.651Z,11.8
2022-07-27T03:46:01.323Z,11.9
2022-07-27T03:47:01.808Z,11.9
2022-07-27T03:48:01.388Z,11.8
2022-07-27T03:49:01.012Z,11.8
2022-07-27T03:50:01.554Z,11.8
2022-07-27T03:51:01.151Z,11.7
2022-07-27T03:52:01.713Z,11.8
2022-07-27T03:53:01.293Z,11.7
2022-07-27T03:54:01.872Z,11.8
2022-07-27T03:55:01.451Z,11.8
2022-07-27T03:56:01.802Z,11.8
2022-07-27T03:57:01.385Z,11.8
2022-07-27T03:58:00.966Z,11.7
2022-07-27T03:59:01.548Z,11.7
2022-07-27T04:00:01.130Z,11.6
2022-07-27T04:01:01.770Z,11.6
2022-07-27T04:02:01.437Z,11.5
2022-07-27T04:03:01.030Z,11.6
2022-07-27T04:04:01.534Z,11.6
2022-07-27T04:05:01.128Z,11.6
2022-07-27T04:06:01.708Z,11.7
2022-07-27T04:07:01.313Z,11.8
2022-07-27T04:08:01.882Z,11.8
2022-07-27T04:09:07.788Z,11.9
2022-07-27T04:10:01.041Z,11.9
2022-07-27T04:11:01.671Z,12
2022-07-27T04:12:01.370Z,12
2022-07-27T04:13:01.237Z,12
2022-07-27T04:14:01.777Z,12.1
2022-07-27T04:15:01.165Z,12
2022-07-27T04:16:01.749Z,12
2022-07-27T04:17:01.432Z,12.1
2022-07-27T04:18:00.977Z,12.1
2022-07-27T04:19:01.498Z,12.2
2022-07-27T04:20:01.078Z,12.2
2022-07-27T04:21:01.658Z,12.2
2022-07-27T04:22:01.258Z,12.3
2022-07-27T04:23:01.825Z,12.1
2022-07-27T04:24:01.424Z,12
2022-07-27T04:25:01.004Z,12
2022-07-27T04:26:01.586Z,12
2022-07-27T04:27:01.170Z,11.9
2022-07-27T04:28:01.769Z,11.9
2022-07-27T04:29:01.369Z,11.8
2022-07-27T04:30:00.921Z,11.9
2022-07-27T04:31:01.601Z,11.8
2022-07-27T04:32:01.155Z,11.9
2022-07-27T04:33:01.733Z,12
2022-07-27T04:34:01.293Z,12
2022-07-27T04:35:01.879Z,11.9
2022-07-27T04:36:01.464Z,12.1
2022-07-27T04:37:01.044Z,12
2022-07-27T04:38:01.625Z,12.2
2022-07-27T04:39:01.224Z,12.3
2022-07-27T04:40:01.817Z,12.3
2022-07-27T04:41:01.401Z,12.3
2022-07-27T04:42:00.979Z,12.5
2022-07-27T04:43:01.556Z,12.7
2022-07-27T04:44:01.161Z,12.6
2022-07-27T04:45:01.721Z,12.6
2022-07-27T04:46:01.343Z,12.6
2022-07-27T04:47:01.896Z,12.6
2022-07-27T04:48:01.478Z,12.7
2022-07-27T04:49:01.122Z,12.6
2022-07-27T04:50:01.653Z,12.7
2022-07-27T04:51:01.268Z,12.8
2022-07-27T04:52:01.837Z,12.8
2022-07-27T04:53:01.420Z,12.9
2022-07-27T04:54:01.022Z,12.9
2022-07-27T04:55:01.607Z,13.2
2022-07-27T04:56:01.242Z,13.1
2022-07-27T04:57:01.823Z,13
2022-07-27T04:58:01.404Z,13
2022-07-27T04:59:01.005Z,13.2
2022-07-27T05:00:01.585Z,13.2
2022-07-27T05:01:01.241Z,13.2
2022-07-27T05:02:01.749Z,13.3
2022-07-27T05:03:01.335Z,13.4
2022-07-27T05:04:01.001Z,13.5
2022-07-27T05:05:01.495Z,13.4
2022-07-27T05:06:01.075Z,13.5
2022-07-27T05:07:01.655Z,13.7
2022-07-27T05:08:01.243Z,13.7
2022-07-27T05:09:01.847Z,13.8
2022-07-27T05:10:01.499Z,13.9
2022-07-27T05:11:01.070Z,13.9
2022-07-27T05:12:01.653Z,13.9
2022-07-27T05:13:01.269Z,14
2022-07-27T05:14:01.448Z,13.9
2022-07-27T05:15:01.030Z,13.9
2022-07-27T05:16:01.671Z,14.1
2022-07-27T05:17:01.317Z,14
2022-07-27T05:18:01.843Z,14
2022-07-27T05:19:01.426Z,14
2022-07-27T05:20:01.024Z,14.1
2022-07-27T05:21:01.589Z,14
2022-07-27T05:22:01.168Z,14.1
2022-07-27T05:23:01.745Z,14.3
2022-07-27T05:24:01.325Z,14.2
2022-07-27T05:25:01.932Z,14.2
2022-07-27T05:26:01.512Z,14.2
2022-07-27T05:27:01.092Z,14.1
2022-07-27T05:28:01.672Z,14.3
2022-07-27T05:29:01.252Z,14.2
2022-07-27T05:30:01.855Z,14.3
2022-07-27T05:31:01.437Z,14.3
2022-07-27T05:32:01.078Z,14.4
2022-07-27T05:33:01.607Z,14.5
2022-07-27T05:34:01.189Z,14.4
2022-07-27T05:35:01.792Z,14.5
2022-07-27T05:36:01.373Z,14.6
2022-07-27T05:37:00.963Z,14.6
2022-07-27T05:38:01.549Z,14.6
2022-07-27T05:39:01.142Z,14.6
2022-07-27T05:40:01.737Z,14.7
2022-07-27T05:41:01.319Z,14.8
2022-07-27T05:42:01.915Z,14.7
2022-07-27T05:43:01.506Z,14.7
2022-07-27T05:44:01.109Z,14.8
2022-07-27T05:45:01.684Z,14.8
2022-07-27T05:46:01.294Z,14.7
2022-07-27T05:47:01.862Z,14.8
2022-07-27T05:48:01.400Z,14.8
2022-07-27T05:49:01.046Z,15
2022-07-27T05:50:01.565Z,14.9
2022-07-27T05:51:01.172Z,15
2022-07-27T05:52:01.750Z,15
2022-07-27T05:53:01.331Z,15
2022-07-27T05:54:01.934Z,15.1
2022-07-27T05:55:01.520Z,15.1
2022-07-27T05:56:01.105Z,15.1
2022-07-27T05:57:01.678Z,15.2
2022-07-27T05:58:01.283Z,15.2
2022-07-27T05:59:06.651Z,15.4
2022-07-27T06:00:01.444Z,15.3
2022-07-27T06:01:01.109Z,15.2
2022-07-27T06:02:01.630Z,15.2
2022-07-27T06:03:01.299Z,15.3
2022-07-27T06:04:01.880Z,15.3
2022-07-27T06:05:01.463Z,15.3
2022-07-27T06:06:01.028Z,15.3
2022-07-27T06:07:01.599Z,15.4
2022-07-27T06:08:01.180Z,15.5
2022-07-27T06:09:01.762Z,15.4
2022-07-27T06:10:01.361Z,15.4
2022-07-27T06:11:00.961Z,15.4
2022-07-27T06:12:01.490Z,15.4
2022-07-27T06:13:01.078Z,15.5
2022-07-27T06:14:01.654Z,15.4
2022-07-27T06:15:01.255Z,15.3
2022-07-27T06:16:01.910Z,15.3
2022-07-27T06:17:01.517Z,15.4
2022-07-27T06:18:01.056Z,15.5
2022-07-27T06:19:01.630Z,15.7
2022-07-27T06:20:01.211Z,15.6
2022-07-27T06:21:01.810Z,15.6
2022-07-27T06:22:01.409Z,15.6
2022-07-27T06:23:00.976Z,15.6
2022-07-27T06:24:01.551Z,15.5
2022-07-27T06:25:01.129Z,15.6
2022-07-27T06:26:01.727Z,15.7
2022-07-27T06:27:01.308Z,15.8
2022-07-27T06:28:01.881Z,15.9
2022-07-27T06:29:01.486Z,15.8
2022-07-27T06:30:01.064Z,16
2022-07-27T06:31:01.642Z,16
2022-07-27T06:32:01.385Z,15.9
2022-07-27T06:33:01.884Z,16
2022-07-27T06:34:02.068Z,15.9
2022-07-27T06:35:01.725Z,16
2022-07-27T06:36:01.776Z,15.9
2022-07-27T06:37:01.338Z,15.9
2022-07-27T06:38:01.932Z,16
2022-07-27T06:39:01.515Z,16
2022-07-27T06:40:01.094Z,16
2022-07-27T06:41:01.677Z,16
2022-07-27T06:42:01.262Z,15.9
2022-07-27T06:43:01.860Z,15.9
2022-07-27T06:44:01.446Z,15.8
2022-07-27T06:45:01.045Z,15.9
2022-07-27T06:46:01.626Z,16
2022-07-27T06:47:01.283Z,16.1
2022-07-27T06:48:01.788Z,16.1
2022-07-27T06:49:01.388Z,16.1
2022-07-27T06:50:00.949Z,16.3
2022-07-27T06:51:01.551Z,16.1
2022-07-27T06:52:01.189Z,16.2
2022-07-27T06:53:01.766Z,16.3
2022-07-27T06:54:01.350Z,16.5
2022-07-27T06:55:01.987Z,16.5
2022-07-27T06:56:01.607Z,16.7
2022-07-27T06:57:01.180Z,16.6
2022-07-27T06:58:01.765Z,16.5
2022-07-27T06:59:01.349Z,16.6
2022-07-27T07:00:01.936Z,16.7
2022-07-27T07:01:01.658Z,16.8
2022-07-27T07:02:01.174Z,16.9
2022-07-27T07:03:01.760Z,16.8
2022-07-27T07:04:01.356Z,16.9
2022-07-27T07:05:01.917Z,16.9
2022-07-27T07:06:01.518Z,17
2022-07-27T07:07:05.328Z,17
2022-07-27T07:08:01.665Z,17
2022-07-27T07:09:01.246Z,17
2022-07-27T07:10:01.828Z,16.9
2022-07-27T07:11:01.456Z,16.9
2022-07-27T07:12:01.012Z,17
2022-07-27T07:13:01.601Z,17
2022-07-27T07:14:01.189Z,16.9
2022-07-27T07:15:01.767Z,16.9
2022-07-27T07:16:01.395Z,17
2022-07-27T07:17:01.923Z,17
2022-07-27T07:18:01.526Z,16.8
2022-07-27T07:19:01.107Z,16.9
2022-07-27T07:20:01.688Z,17
2022-07-27T07:21:01.268Z,17
2022-07-27T07:22:01.849Z,17.1
2022-07-27T07:23:01.456Z,17.1
2022-07-27T07:24:01.017Z,17
2022-07-27T07:25:03.004Z,16.8
2022-07-27T07:26:01.811Z,16.8
2022-07-27T07:27:01.396Z,16.8
2022-07-27T07:28:01.005Z,16.8
2022-07-27T07:29:01.605Z,16.9
2022-07-27T07:30:01.189Z,16.9
2022-07-27T07:31:01.364Z,17.1
2022-07-27T07:32:01.926Z,17.1
2022-07-27T07:33:01.535Z,17.2
2022-07-27T07:34:01.140Z,17.3
2022-07-27T07:35:01.730Z,17.5
2022-07-27T07:36:08.896Z,17.7
2022-07-27T07:37:01.855Z,17.8
2022-07-27T07:38:01.436Z,17.9
2022-07-27T07:39:01.019Z,17.8
2022-07-27T07:40:25.098Z,17.8
2022-07-27T07:41:01.216Z,17.7
2022-07-27T07:42:01.823Z,17.7
2022-07-27T07:43:01.428Z,17.8
2022-07-27T07:44:00.990Z,17.9
2022-07-27T07:45:01.570Z,18.2
2022-07-27T07:46:01.149Z,18.3
2022-07-27T07:47:01.763Z,18.2
2022-07-27T07:48:01.413Z,18.2
2022-07-27T07:49:01.038Z,18
2022-07-27T07:50:01.576Z,18.1
2022-07-27T07:51:01.155Z,18.1
2022-07-27T07:52:01.735Z,18.2
2022-07-27T07:53:01.395Z,18.5
2022-07-27T07:54:00.980Z,18.5
2022-07-27T07:55:01.807Z,18.6
2022-07-27T07:56:01.222Z,18.8
2022-07-27T07:57:01.805Z,18.6
2022-07-27T07:58:01.394Z,18.6
2022-07-27T07:59:00.967Z,18.4
2022-07-27T08:00:01.552Z,18.2
2022-07-27T08:01:01.144Z,18.3
2022-07-27T08:02:01.842Z,18.3
2022-07-27T08:03:01.388Z,18.2
2022-07-27T08:04:00.960Z,17.8
2022-07-27T08:05:01.546Z,17.8
2022-07-27T08:06:01.133Z,17.8
2022-07-27T08:07:01.820Z,17.8
2022-07-27T08:08:01.364Z,17.9
2022-07-27T08:09:01.944Z,17.8
2022-07-27T08:10:01.526Z,17.8
2022-07-27T08:11:01.113Z,17.9
2022-07-27T08:12:01.773Z,18
2022-07-27T08:13:01.585Z,18.2
2022-07-27T08:14:01.939Z,18.2
2022-07-27T08:15:01.527Z,18.2
2022-07-27T08:16:01.199Z,18.4
2022-07-27T08:17:01.704Z,18.4
2022-07-27T08:18:01.301Z,18.4
2022-07-27T08:19:01.867Z,18.3
2022-07-27T08:20:01.443Z,18.5
2022-07-27T08:21:01.021Z,18.7
2022-07-27T08:22:01.605Z,18.9
2022-07-27T08:23:01.209Z,18.9
2022-07-27T08:24:02.728Z,18.7
2022-07-27T08:25:01.658Z,18.8
2022-07-27T08:26:05.710Z,18.6
2022-07-27T08:27:01.560Z,18.4
2022-07-27T08:28:02.080Z,18.3
2022-07-27T08:29:11.138Z,18.3
2022-07-27T08:30:02.418Z,18.3
2022-07-27T08:31:01.247Z,18.3
2022-07-27T08:32:01.760Z,18.3
2022-07-27T08:33:01.445Z,18.2
2022-07-27T08:34:01.820Z,18.2
2022-07-27T08:35:01.407Z,18.3
2022-07-27T08:36:00.991Z,18.5
2022-07-27T08:37:01.572Z,18.6
2022-07-27T08:38:01.158Z,18.4
2022-07-27T08:39:01.758Z,18.6
2022-07-27T08:41:01.881Z,18.4
2022-07-27T08:42:01.464Z,18.4
2022-07-27T08:43:01.043Z,18.5
2022-07-27T08:44:01.659Z,18.5
2022-07-27T08:45:01.239Z,18.6
2022-07-27T08:46:01.933Z,18.5
2022-07-27T08:47:01.605Z,18.7
2022-07-27T08:48:01.065Z,18.5
2022-07-27T08:49:01.709Z,18.2
2022-07-27T08:50:01.312Z,18
2022-07-27T08:51:01.898Z,18.1
2022-07-27T08:52:01.475Z,18.1
2022-07-27T08:53:01.057Z,18
2022-07-27T08:54:01.641Z,18.1
2022-07-27T08:55:01.222Z,18.3
2022-07-27T08:56:01.201Z,18.1
2022-07-27T08:57:01.805Z,18.2
2022-07-27T08:58:03.311Z,18.2
2022-07-27T08:59:01.613Z,18
2022-07-27T09:00:01.195Z,18.2
2022-07-27T09:01:01.776Z,18.3
2022-07-27T09:02:03.238Z,18.4
2022-07-27T09:03:01.957Z,18.5
2022-07-27T09:04:01.619Z,18.4
2022-07-27T09:05:01.190Z,18.5
2022-07-27T09:06:01.784Z,18.5
2022-07-27T09:07:01.364Z,18.6
2022-07-27T09:08:01.947Z,18.8
2022-07-27T09:09:01.557Z,18.8
2022-07-27T09:10:01.151Z,18.8
2022-07-27T09:11:01.740Z,18.9
2022-07-27T09:12:01.318Z,18.8
2022-07-27T09:13:01.928Z,18.8
2022-07-27T09:14:01.509Z,18.9
2022-07-27T09:15:01.089Z,19.1
2022-07-27T09:16:18.975Z,19.2
2022-07-27T09:17:46.350Z,19.3
2022-07-27T09:18:01.907Z,19.1
2022-07-27T09:19:01.544Z,19.4
2022-07-27T09:20:01.125Z,19.5
2022-07-27T09:21:01.699Z,19.5
2022-07-27T09:22:01.279Z,19.6
2022-07-27T09:23:01.875Z,19.6
2022-07-27T09:24:01.455Z,19.3
2022-07-27T09:25:01.028Z,19.1
2022-07-27T09:26:04.394Z,19.1
2022-07-27T09:27:01.144Z,19.1
2022-07-27T09:28:01.744Z,19
2022-07-27T09:29:01.326Z,18.8
2022-07-27T09:30:01.907Z,18.9
2022-07-27T09:31:01.851Z,18.8
2022-07-27T09:32:01.152Z,18.8
2022-07-27T09:33:01.752Z,18.8
2022-07-27T09:34:01.354Z,18.8
2022-07-27T09:35:01.914Z,18.7
2022-07-27T09:36:01.492Z,18.7
2022-07-27T09:37:01.069Z,18.7
2022-07-27T09:38:01.606Z,18.8
2022-07-27T09:39:02.666Z,18.8
2022-07-27T09:40:01.484Z,18.9
2022-07-27T09:41:01.066Z,18.9
2022-07-27T09:42:02.047Z,18.8
2022-07-27T09:43:09.160Z,18.9
2022-07-27T09:45:01.430Z,18.7
2022-07-27T09:46:01.392Z,19
2022-07-27T09:47:01.786Z,19.3
2022-07-27T09:48:01.355Z,19.3
2022-07-27T09:49:02.034Z,19.1
2022-07-27T09:50:01.668Z,19
2022-07-27T09:51:02.889Z,19.1
2022-07-27T09:52:02.591Z,19.3
2022-07-27T09:53:10.310Z,19.5
2022-07-27T09:54:01.950Z,19.6
2022-07-27T09:55:01.537Z,19.9
2022-07-27T09:56:01.122Z,19.8
2022-07-27T09:57:01.706Z,19.9
2022-07-27T09:58:01.290Z,20.1
2022-07-27T09:59:01.906Z,20.2
2022-07-27T10:00:01.512Z,20.3
2022-07-27T10:01:01.080Z,20.1
2022-07-27T10:02:01.714Z,19.8
2022-07-27T10:03:01.312Z,19.9
2022-07-27T10:04:02.039Z,19.8
2022-07-27T10:05:01.641Z,19.8
2022-07-27T10:06:01.143Z,20
2022-07-27T10:07:03.846Z,20.1
2022-07-27T10:08:01.265Z,20.2
2022-07-27T10:09:01.853Z,20.3
2022-07-27T10:10:01.434Z,20.4
2022-07-27T10:11:01.034Z,20.3
2022-07-27T10:12:01.577Z,19.9
2022-07-27T10:13:01.176Z,20
2022-07-27T10:14:01.776Z,20.1
2022-07-27T10:15:01.358Z,20.3
2022-07-27T10:16:02.017Z,20.3
2022-07-27T10:17:01.653Z,20.5
2022-07-27T10:18:01.687Z,20.6
2022-07-27T10:19:01.518Z,20.7
2022-07-27T10:20:01.420Z,20.8
2022-07-27T10:21:01.997Z,20.5
2022-07-27T10:22:01.584Z,20.6
2022-07-27T10:23:01.179Z,20.5
2022-07-27T10:24:01.771Z,20.4
2022-07-27T10:25:01.357Z,20.3
2022-07-27T10:26:01.943Z,20.3
2022-07-27T10:27:01.525Z,20.3
2022-07-27T10:28:01.108Z,20.2
2022-07-27T10:29:01.723Z,20.4
2022-07-27T10:30:01.302Z,20.5
2022-07-27T10:31:01.909Z,20.6
2022-07-27T10:32:01.508Z,20.9
2022-07-27T10:33:01.090Z,20.5
2022-07-27T10:34:01.686Z,20.7
2022-07-27T10:35:01.284Z,20.7
2022-07-27T10:36:01.857Z,20.7
2022-07-27T10:37:01.436Z,20.7
2022-07-27T10:38:01.017Z,20.7
2022-07-27T10:39:01.615Z,20.5
2022-07-27T10:40:01.215Z,20.6
2022-07-27T10:41:01.782Z,20.6
2022-07-27T10:42:01.364Z,20.8
2022-07-27T10:43:01.948Z,20.6
2022-07-27T10:44:01.533Z,20.4
2022-07-27T10:45:01.132Z,20.5
2022-07-27T10:46:02.960Z,20.6
2022-07-27T10:47:01.650Z,20.5
2022-07-27T10:48:01.975Z,20.3
2022-07-27T10:49:01.611Z,20.4
2022-07-27T10:50:01.175Z,20.2
2022-07-27T10:51:01.766Z,20.1
2022-07-27T10:52:01.368Z,20.2
2022-07-27T10:53:01.934Z,20.1
2022-07-27T10:54:16.790Z,20.3
2022-07-27T10:55:01.051Z,20.2
2022-07-27T10:56:01.633Z,20
2022-07-27T10:57:01.232Z,20
2022-07-27T10:58:01.796Z,20.2
2022-07-27T10:59:01.376Z,20.1
2022-07-27T11:00:12.165Z,20.3
2022-07-27T11:01:01.543Z,20.4
2022-07-27T11:02:01.254Z,20.7
2022-07-27T11:03:01.748Z,20.7
2022-07-27T11:04:01.364Z,20.6
2022-07-27T11:05:01.921Z,20.6
2022-07-27T11:06:18.213Z,20.5
2022-07-27T11:10:04.243Z,20.6
2022-07-27T11:11:01.210Z,20.6
2022-07-27T11:12:01.847Z,20.7
2022-07-27T11:13:05.398Z,20.7
2022-07-27T11:14:01.994Z,20.7
2022-07-27T11:15:01.656Z,20.7
2022-07-27T11:16:22.783Z,20.6
2022-07-27T11:17:25.505Z,20.7
2022-07-27T11:18:04.864Z,20.7
2022-07-27T11:19:01.958Z,20.4
2022-07-27T11:20:01.636Z,20.5
2022-07-27T11:21:04.567Z,20.5
2022-07-27T11:22:04.587Z,20.5
2022-07-27T11:24:01.852Z,20.4
2022-07-27T11:25:01.431Z,20.4
2022-07-27T11:26:02.011Z,20.5
2022-07-27T11:27:01.594Z,20.2
2022-07-27T11:28:01.151Z,20.3
2022-07-27T11:29:01.730Z,20
2022-07-27T11:30:01.314Z,19.8
2022-07-27T11:31:03.520Z,19.8
2022-07-27T11:32:01.395Z,19.8
2022-07-27T11:33:02.037Z,19.7
2022-07-27T11:34:01.620Z,19.6
2022-07-27T11:35:01.207Z,19.7
2022-07-27T11:36:01.782Z,19.8
2022-07-27T11:37:01.361Z,19.9
2022-07-27T11:38:01.976Z,20.4
2022-07-27T11:39:01.571Z,20.3
2022-07-27T11:40:04.254Z,20.5
2022-07-27T11:41:13.534Z,20.4
2022-07-27T11:42:11.803Z,20.6
2022-07-27T11:43:01.789Z,20.5
2022-07-27T11:44:01.373Z,20.5
2022-07-27T11:45:01.914Z,20.6
2022-07-27T11:46:01.510Z,20.6
2022-07-27T11:47:02.089Z,20.8
2022-07-27T11:48:01.867Z,20.9
2022-07-27T11:49:06.919Z,20.9
2022-07-27T11:50:02.026Z,20.8
2022-07-27T11:51:01.609Z,20.6
2022-07-27T11:52:01.210Z,20.6
2022-07-27T11:53:02.161Z,20.4
2022-07-27T11:54:01.434Z,20.4
2022-07-27T11:55:02.014Z,20.5
2022-07-27T11:56:01.599Z,20.3
2022-07-27T11:57:01.198Z,20.5
2022-07-27T11:58:01.765Z,20.5
2022-07-27T11:59:01.697Z,20.5
2022-07-27T12:00:01.942Z,20.4
2022-07-27T12:01:01.522Z,20.5
2022-07-27T12:02:01.182Z,20.6
2022-07-27T12:03:01.689Z,20.7
2022-07-27T12:04:01.376Z,20.8
2022-07-27T12:05:03.110Z,21
2022-07-27T12:06:01.970Z,21.1
2022-07-27T12:07:01.181Z,21.2
2022-07-27T12:08:01.760Z,21.3
2022-07-27T12:09:01.339Z,21.5
2022-07-27T12:10:01.988Z,21.4
2022-07-27T12:11:01.578Z,21.4
2022-07-27T12:12:01.156Z,21.3
2022-07-27T12:13:01.724Z,21.3
2022-07-27T12:14:01.306Z,21.1
2022-07-27T12:15:11.577Z,20.7
2022-07-27T12:16:01.500Z,20.4
2022-07-27T12:17:01.122Z,20.2
2022-07-27T12:18:01.668Z,19.9
2022-07-27T12:19:01.249Z,19.9
2022-07-27T12:20:01.850Z,19.8
2022-07-27T12:21:01.430Z,19.9
2022-07-27T12:22:02.045Z,20.1
2022-07-27T12:23:01.631Z,20.1
2022-07-27T12:24:01.232Z,20.3
2022-07-27T12:25:01.795Z,20.7
2022-07-27T12:26:01.377Z,20.7
2022-07-27T12:27:06.046Z,20.8
2022-07-27T12:28:01.497Z,20.8
2022-07-27T12:29:01.093Z,20.9
2022-07-27T12:30:01.662Z,20.9
2022-07-27T12:31:01.278Z,20.9
2022-07-27T12:32:01.826Z,21
2022-07-27T12:33:01.404Z,20.8
2022-07-27T12:34:05.945Z,20.9
2022-07-27T12:35:01.557Z,20.9
2022-07-27T12:36:01.142Z,20.7
2022-07-27T12:37:01.718Z,20.5
2022-07-27T12:38:01.315Z,20.9
2022-07-27T12:39:01.897Z,21.4
2022-07-27T12:40:01.437Z,21.5
2022-07-27T12:41:02.018Z,21.6
2022-07-27T12:42:01.598Z,21.8
2022-07-27T12:43:01.189Z,21.7
2022-07-27T12:44:01.785Z,21.7
2022-07-27T12:45:01.363Z,21.7
2022-07-27T12:46:02.030Z,22
2022-07-27T12:47:01.616Z,22
2022-07-27T12:48:01.188Z,22
2022-07-27T12:49:01.841Z,22.5
2022-07-27T12:50:01.428Z,22.4
2022-07-27T12:51:02.010Z,22.2
2022-07-27T12:52:01.592Z,22.3
2022-07-27T12:53:01.172Z,22.5
2022-07-27T12:54:01.763Z,22.3
2022-07-27T12:55:01.365Z,22.1
2022-07-27T12:56:01.926Z,22.2
2022-07-27T12:57:01.506Z,22.1
2022-07-27T12:58:01.087Z,22
2022-07-27T12:59:01.670Z,22.4
2022-07-27T13:00:01.271Z,22.5
2022-07-27T13:01:01.423Z,22.4
2022-07-27T13:02:01.138Z,22.3
2022-07-27T13:03:01.624Z,22.3
2022-07-27T13:04:01.237Z,22.3
2022-07-27T13:05:01.837Z,22.3
2022-07-27T13:06:01.435Z,22.4
2022-07-27T13:07:02.017Z,22.4
2022-07-27T13:08:02.038Z,22.4
2022-07-27T13:09:01.258Z,22.4
2022-07-27T13:10:04.029Z,22.2
2022-07-27T13:11:01.414Z,22.2
2022-07-27T13:12:01.994Z,22.5
2022-07-27T13:13:01.579Z,22.4
2022-07-27T13:14:01.161Z,22.6
2022-07-27T13:15:01.742Z,23
2022-07-27T13:16:01.434Z,23.3
2022-07-27T13:17:02.034Z,23.3
2022-07-27T13:18:01.583Z,23.1
2022-07-27T13:19:01.156Z,22.8
2022-07-27T13:20:01.737Z,22.1
2022-07-27T13:21:01.339Z,21.7
2022-07-27T13:22:01.915Z,21.5
2022-07-27T13:23:01.495Z,21.3
2022-07-27T13:24:02.076Z,21.2
2022-07-27T13:25:01.655Z,21
2022-07-27T13:26:01.253Z,21
2022-07-27T13:27:01.819Z,21.3
2022-07-27T13:28:01.419Z,21.8
2022-07-27T13:29:01.982Z,22.1
2022-07-27T13:30:01.563Z,22.4